Time;durP1;ratioP1;P1;durP2;ratioP2;P2;SDS_P1;SDS_P2;PMS_P1;PMS_P2;Temp;Humidity;BMP_temperature;BMP_pressure;BME280_temperature;BME280_humidity;BME280_pressure;Samples;Min_cycle;Max_cycle;Signal;HPM_P1;HPM_P2
2023/07/06 00:01:24;;;;;;;0.20;0.20;;;;;;;14.77;100.00;99605.22;7391580;19;20437;-77
2023/07/06 00:03:51;;;;;;;8.40;0.75;;;;;;;15.16;100.00;99603.13;7391917;19;20101;-76
2023/07/06 00:06:18;;;;;;;0.10;0.10;;;;;;;15.07;100.00;99603.41;7393023;19;20022;-76
2023/07/06 00:08:44;;;;;;;0.90;0.73;;;;;;;14.44;100.00;99599.63;7397929;19;20025;-76
2023/07/06 00:11:10;;;;;;;0.10;0.10;;;;;;;14.34;100.00;99609.53;7392118;19;20019;-76
2023/07/06 00:13:38;;;;;;;0.10;0.10;;;;;;;14.67;100.00;99606.00;7392899;19;20019;-76
2023/07/06 00:16:05;;;;;;;0.43;0.40;;;;;;;14.44;100.00;99605.97;7392769;19;20014;-76
2023/07/06 00:18:32;;;;;;;0.30;0.20;;;;;;;14.55;100.00;99605.25;7392141;19;20022;-76
2023/07/06 00:20:58;;;;;;;0.43;0.17;;;;;;;14.70;100.00;99614.16;7397341;19;20022;-76
2023/07/06 00:23:25;;;;;;;0.10;0.10;;;;;;;14.11;100.00;99607.94;7391205;19;20082;-76
2023/07/06 00:25:51;;;;;;;0.20;0.20;;;;;;;13.98;100.00;99611.22;7392938;19;20074;-76
2023/07/06 00:28:24;;;;;;;2.10;0.30;;;;;;;14.75;100.00;99607.03;7392858;19;20021;-76
2023/07/06 00:33:18;;;;;;;0.57;0.55;;;;;;;13.46;100.00;99613.56;7391100;19;20078;-76
2023/07/06 00:35:47;;;;;;;0.43;0.43;;;;;;;13.45;100.00;99617.63;7390966;19;20039;-76
2023/07/06 00:38:15;;;;;;;0.20;0.20;;;;;;;13.66;100.00;99615.44;7390869;19;20075;-76
2023/07/06 00:40:44;;;;;;;5.30;0.30;;;;;;;14.23;100.00;99612.28;7390288;19;20053;-76
2023/07/06 00:43:12;;;;;;;0.22;0.10;;;;;;;14.15;100.00;99605.66;7391586;19;20031;-76
2023/07/06 00:45:38;;;;;;;0.30;0.30;;;;;;;14.32;100.00;99607.25;7392084;19;20044;-76
2023/07/06 00:48:17;;;;;;;0.10;0.10;;;;;;;14.45;100.00;99612.34;7390326;19;20035;-76
2023/07/06 00:50:44;;;;;;;0.82;0.20;;;;;;;15.03;100.00;99611.31;7391445;19;20010;-76
2023/07/06 00:53:14;;;;;;;0.20;0.20;;;;;;;14.72;100.00;99608.81;7390343;19;20047;-76
2023/07/06 00:55:40;;;;;;;0.10;0.10;;;;;;;14.89;100.00;99611.59;7392621;19;20044;-76
2023/07/06 00:58:13;;;;;;;0.75;0.55;;;;;;;13.66;100.00;99607.78;7395361;19;20064;-76
2023/07/06 01:00:40;;;;;;;3.15;0.50;;;;;;;14.01;100.00;99612.25;7391265;19;20021;-76
2023/07/06 01:03:08;;;;;;;0.22;0.13;;;;;;;13.41;100.00;99605.13;7389652;19;20486;-76
2023/07/06 01:05:38;;;;;;;0.32;0.32;;;;;;;13.40;100.00;99607.19;7390176;19;20031;-76
2023/07/06 01:08:13;;;;;;;0.85;0.40;;;;;;;13.97;100.00;99606.13;7393539;19;20019;-76
2023/07/06 01:10:40;;;;;;;0.20;0.10;;;;;;;13.43;100.00;99608.97;7390721;19;20032;-76
2023/07/06 01:13:07;;;;;;;2.97;0.47;;;;;;;12.72;100.00;99617.59;7391276;19;20011;-76
2023/07/06 01:15:41;;;;;;;0.30;0.15;;;;;;;12.78;100.00;99616.41;7392183;19;20011;-76
2023/07/06 01:18:16;;;;;;;0.25;0.25;;;;;;;12.73;100.00;99616.38;7392980;19;20022;-76
2023/07/06 01:20:56;;;;;;;2.00;0.30;;;;;;;12.84;100.00;99619.25;7391807;19;20018;-76
2023/07/06 01:23:42;;;;;;;0.15;0.10;;;;;;;12.78;100.00;99615.63;7389593;19;20026;-76
2023/07/06 01:26:15;;;;;;;0.10;0.10;;;;;;;13.03;100.00;99609.22;7389728;19;20025;-76
2023/07/06 01:28:56;;;;;;;0.25;0.25;;;;;;;12.81;100.00;99612.63;7393161;19;20030;-76
2023/07/06 01:31:43;;;;;;;;;;;;;;;13.11;100.00;99609.53;7389925;19;20015;-76
2023/07/06 01:34:27;;;;;;;1.80;0.60;;;;;;;13.38;100.00;99608.94;7389498;19;19918;-76
2023/07/06 01:37:23;;;;;;;0.70;0.30;;;;;;;13.19;100.00;99602.97;7387780;19;20022;-76
2023/07/06 01:39:50;;;;;;;0.25;0.25;;;;;;;13.11;100.00;99610.31;7388768;19;20021;-76
2023/07/06 01:42:29;;;;;;;0.95;0.50;;;;;;;13.48;100.00;99602.63;7387198;19;20045;-76
2023/07/06 01:45:04;;;;;;;4.47;0.63;;;;;;;13.19;100.00;99605.78;7386702;19;20025;-76
2023/07/06 01:47:34;;;;;;;0.40;0.20;;;;;;;13.28;100.00;99596.41;7389425;19;20018;-76
2023/07/06 01:50:02;;;;;;;1.00;0.20;;;;;;;13.17;100.00;99593.56;7387672;19;20089;-76
2023/07/06 01:52:59;;;;;;;0.40;0.40;;;;;;;13.83;100.00;99598.69;7390607;19;20045;-76
2023/07/06 01:55:50;;;;;;;0.45;0.28;;;;;;;13.88;100.00;99592.34;7398319;19;20041;-76
2023/07/06 01:58:47;;;;;;;0.50;0.50;;;;;;;13.57;100.00;99585.63;7399802;19;20014;-76
2023/07/06 02:01:20;;;;;;;0.85;0.40;;;;;;;13.36;100.00;99589.84;7393726;19;20016;-76
2023/07/06 02:03:50;;;;;;;0.60;0.60;;;;;;;13.47;100.00;99580.75;7397308;19;20019;-76
2023/07/06 02:06:18;;;;;;;0.60;0.17;;;;;;;13.55;100.00;99581.81;7396437;19;20043;-76
2023/07/06 02:08:45;;;;;;;0.55;0.38;;;;;;;13.23;100.00;99583.94;7398412;19;20011;-76
2023/07/06 02:11:18;;;;;;;0.20;0.20;;;;;;;13.14;100.00;99581.34;7394058;19;20017;-76
2023/07/06 02:13:44;;;;;;;0.30;0.20;;;;;;;13.25;100.00;99575.84;7395368;19;20399;-76
2023/07/06 02:16:10;;;;;;;0.32;0.30;;;;;;;13.57;100.00;99577.25;7397144;19;20022;-76
2023/07/06 02:18:37;;;;;;;1.40;1.10;;;;;;;13.26;100.00;99568.19;7400044;19;20018;-76
2023/07/06 02:21:04;;;;;;;0.30;0.28;;;;;;;13.42;100.00;99568.28;7395852;19;20017;-76
2023/07/06 02:23:30;;;;;;;0.38;0.30;;;;;;;14.57;100.00;99568.28;7392865;19;20360;-76
2023/07/06 02:25:56;;;;;;;0.10;0.10;;;;;;;14.41;100.00;99572.63;7396780;19;20026;-76
2023/07/06 02:28:25;;;;;;;0.32;0.32;;;;;;;12.99;100.00;99574.38;7397904;19;20028;-76
2023/07/06 02:30:55;;;;;;;0.20;0.20;;;;;;;13.44;100.00;99576.94;7396039;19;20070;-76
2023/07/06 02:33:21;;;;;;;0.57;0.30;;;;;;;13.92;100.00;99571.25;7396570;19;20122;-76
2023/07/06 02:35:47;;;;;;;0.40;0.30;;;;;;;13.47;100.00;99570.31;7394490;19;20014;-76
2023/07/06 02:38:19;;;;;;;0.95;0.50;;;;;;;13.41;100.00;99568.75;7398270;19;20042;-76
2023/07/06 02:40:46;;;;;;;;;;;;;;;14.04;100.00;99572.78;7395258;19;20014;-76
2023/07/06 02:43:12;;;;;;;0.17;0.17;;;;;;;14.80;100.00;99555.78;7392562;19;19933;-76
2023/07/06 02:45:38;;;;;;;0.88;0.32;;;;;;;15.35;100.00;99552.09;7396026;19;20090;-76
2023/07/06 02:48:05;;;;;;;1.65;0.47;;;;;;;15.60;100.00;99553.78;7395901;19;20022;-76
2023/07/06 02:50:32;;;;;;;0.75;0.17;;;;;;;14.76;100.00;99552.47;7395949;19;20010;-76
2023/07/06 02:52:59;;;;;;;10.77;0.28;;;;;;;15.65;100.00;99553.78;7394286;19;20488;-76
2023/07/06 02:55:28;;;;;;;1.42;0.10;;;;;;;14.46;100.00;99552.25;7394885;19;20011;-76
2023/07/06 02:57:54;;;;;;;0.35;0.32;;;;;;;13.90;100.00;99556.22;7397499;19;20014;-76
2023/07/06 03:00:22;;;;;;;0.30;0.30;;;;;;;15.40;100.00;99568.91;7395136;19;20380;-76
2023/07/06 03:02:48;;;;;;;0.95;0.10;;;;;;;13.75;100.00;99572.47;7395805;19;20022;-76
2023/07/06 03:05:14;;;;;;;1.40;0.22;;;;;;;13.49;100.00;99573.38;7390751;19;20115;-76
2023/07/06 03:07:41;;;;;;;3.60;0.82;;;;;;;15.51;100.00;99563.28;7395598;19;20019;-76
2023/07/06 03:10:09;;;;;;;0.20;0.20;;;;;;;14.38;100.00;99562.41;7393795;19;20025;-77
2023/07/06 03:12:38;;;;;;;0.30;0.30;;;;;;;14.96;100.00;99561.38;7395108;19;20029;-76
2023/07/06 03:15:10;;;;;;;0.52;0.10;;;;;;;14.94;100.00;99558.31;7396953;19;20090;-76
2023/07/06 03:17:37;;;;;;;0.25;0.25;;;;;;;14.97;100.00;99562.91;7394549;19;20029;-76
2023/07/06 03:20:15;;;;;;;1.35;0.32;;;;;;;15.30;100.00;99558.47;7395007;19;20511;-76
2023/07/06 03:22:45;;;;;;;0.30;0.30;;;;;;;15.54;100.00;99562.25;7394922;19;20015;-76
2023/07/06 03:25:13;;;;;;;0.32;0.32;;;;;;;17.40;100.00;99559.75;7398075;19;20023;-76
2023/07/06 03:27:41;;;;;;;0.10;0.10;;;;;;;16.04;100.00;99562.00;7393301;19;20509;-76
2023/07/06 03:30:10;;;;;;;0.25;0.10;;;;;;;15.32;100.00;99558.72;7394235;19;20010;-76
2023/07/06 03:32:37;;;;;;;0.47;0.47;;;;;;;14.74;100.00;99569.81;7394582;19;20022;-76
2023/07/06 03:35:05;;;;;;;2.35;0.38;;;;;;;14.15;100.00;99569.25;7394350;19;20301;-76
2023/07/06 03:37:32;;;;;;;0.20;0.20;;;;;;;13.79;100.00;99575.78;7398134;19;20035;-76
2023/07/06 03:39:58;;;;;;;0.30;0.30;;;;;;;13.71;100.00;99567.09;7394950;19;20019;-76
2023/07/06 03:42:24;;;;;;;0.63;0.40;;;;;;;13.95;100.00;99573.03;7392115;19;20061;-76
2023/07/06 03:44:55;;;;;;;1.60;0.82;;;;;;;14.69;100.00;99575.41;7391808;19;20157;-76
2023/07/06 03:47:26;;;;;;;0.20;0.10;;;;;;;15.35;100.00;99574.53;7390269;19;20010;-76
2023/07/06 03:49:56;;;;;;;1.23;0.35;;;;;;;14.56;100.00;99573.13;7396301;19;20018;-76
2023/07/06 03:52:22;;;;;;;0.55;0.55;;;;;;;14.56;100.00;99575.94;7392166;19;20070;-76
2023/07/06 03:54:48;;;;;;;0.65;0.50;;;;;;;14.44;100.00;99571.59;7394522;19;20014;-76
2023/07/06 03:57:16;;;;;;;0.70;0.35;;;;;;;15.07;100.00;99575.34;7396251;19;20018;-76
2023/07/06 03:59:42;;;;;;;0.47;0.20;;;;;;;14.76;100.00;99575.69;7392696;19;20057;-76
2023/07/06 04:02:09;;;;;;;0.30;0.15;;;;;;;14.84;100.00;99576.69;7396056;19;20098;-76
2023/07/06 04:04:36;;;;;;;0.45;0.45;;;;;;;14.88;100.00;99574.38;7392163;19;20042;-76
2023/07/06 04:07:02;;;;;;;0.10;0.10;;;;;;;14.99;100.00;99565.94;7393166;19;20015;-76
2023/07/06 04:09:28;;;;;;;0.10;0.10;;;;;;;15.33;100.00;99571.47;7391441;19;20018;-76
2023/07/06 04:11:55;;;;;;;1.58;0.30;;;;;;;16.10;100.00;99570.38;7390419;19;20078;-76
2023/07/06 04:14:27;;;;;;;1.98;0.43;;;;;;;15.43;100.00;99569.91;7397646;19;20052;-76
2023/07/06 04:16:55;;;;;;;0.75;0.20;;;;;;;15.90;100.00;99560.28;7391901;19;20044;-76
2023/07/06 04:19:24;;;;;;;1.85;0.43;;;;;;;17.14;100.00;99557.50;7392247;19;20010;-76
2023/07/06 04:21:51;;;;;;;0.10;0.10;;;;;;;17.45;100.00;99551.25;7391708;19;20021;-76
2023/07/06 04:24:18;;;;;;;0.82;0.20;;;;;;;16.80;100.00;99564.75;7390961;19;20408;-76
2023/07/06 04:26:47;;;;;;;0.10;0.10;;;;;;;16.89;100.00;99558.75;7393575;19;20022;-76
2023/07/06 04:29:14;;;;;;;0.30;0.30;;;;;;;17.13;100.00;99563.66;7393071;19;20044;-76
2023/07/06 04:31:41;;;;;;;1.45;0.45;;;;;;;17.22;100.00;99578.13;7391632;19;20473;-76
2023/07/06 04:34:07;;;;;;;0.20;0.10;;;;;;;17.46;100.00;99574.53;7392837;19;20374;-76
2023/07/06 04:36:34;;;;;;;1.50;1.27;;;;;;;17.10;100.00;99578.78;7391082;19;20047;-76
2023/07/06 04:39:00;;;;;;;1.15;0.47;;;;;;;18.51;100.00;99587.25;7390706;19;20022;-76
2023/07/06 04:41:27;;;;;;;3.47;0.40;;;;;;;17.05;100.00;99585.22;7391212;19;20018;-76
2023/07/06 04:43:55;;;;;;;0.95;0.30;;;;;;;16.75;100.00;99584.47;7391131;19;20082;-76
2023/07/06 04:46:21;;;;;;;0.20;0.20;;;;;;;16.52;100.00;99581.84;7390626;19;20043;-76
2023/07/06 04:48:48;;;;;;;2.22;0.20;;;;;;;16.19;100.00;99586.91;7392289;19;20027;-76
2023/07/06 04:51:14;;;;;;;5.72;0.43;;;;;;;15.95;100.00;99581.94;7390692;19;20014;-76
2023/07/06 04:53:42;;;;;;;0.30;0.30;;;;;;;17.20;100.00;99585.56;7392403;19;20025;-76
2023/07/06 04:56:09;;;;;;;0.13;0.13;;;;;;;16.94;100.00;99590.94;7392806;19;20473;-76
2023/07/06 04:58:35;;;;;;;0.10;0.10;;;;;;;16.52;100.00;99587.47;7392245;19;20038;-76
2023/07/06 05:01:07;;;;;;;0.10;0.10;;;;;;;16.67;100.00;99587.09;7391941;19;20018;-77
2023/07/06 05:03:35;;;;;;;0.10;0.10;;;;;;;15.94;100.00;99597.25;7390735;19;20015;-77
2023/07/06 05:06:05;;;;;;;0.50;0.28;;;;;;;16.23;100.00;99584.59;7391346;19;20015;-76
2023/07/06 05:08:32;;;;;;;0.10;0.10;;;;;;;15.60;100.00;99593.09;7392720;19;20007;-76
2023/07/06 05:10:58;;;;;;;0.55;0.32;;;;;;;15.01;100.00;99599.09;7391350;19;20341;-76
2023/07/06 05:13:25;;;;;;;0.50;0.25;;;;;;;14.99;100.00;99594.00;7391900;19;20388;-76
2023/07/06 05:15:52;;;;;;;0.38;0.15;;;;;;;15.64;100.00;99602.00;7390949;19;20096;-76
2023/07/06 05:18:19;;;;;;;0.40;0.40;;;;;;;15.55;100.00;99593.91;7391613;19;20378;-76
2023/07/06 05:20:49;;;;;;;7.10;0.82;;;;;;;15.45;100.00;99601.06;7391576;19;20074;-76
2023/07/06 05:23:20;;;;;;;0.40;0.40;;;;;;;15.82;100.00;99601.41;7390121;19;20085;-76
2023/07/06 05:25:52;;;;;;;3.63;0.40;;;;;;;15.87;100.00;99600.63;7391132;19;20022;-76
2023/07/06 05:28:20;;;;;;;0.63;0.20;;;;;;;16.04;100.00;99604.13;7392406;19;20061;-76
2023/07/06 05:30:47;;;;;;;0.30;0.30;;;;;;;15.34;100.00;99599.03;7398224;19;20015;-76
2023/07/06 05:33:14;;;;;;;0.85;0.10;;;;;;;15.64;100.00;99602.00;7397965;19;20027;-76
2023/07/06 05:35:42;;;;;;;1.10;1.00;;;;;;;15.79;100.00;99596.84;7403370;19;20297;-76
2023/07/06 05:38:10;;;;;;;0.28;0.28;;;;;;;15.87;100.00;99592.22;7398483;19;20018;-76
2023/07/06 05:40:39;;;;;;;0.50;0.30;;;;;;;16.60;100.00;99593.28;7397578;19;20039;-76
2023/07/06 05:43:06;;;;;;;0.70;0.47;;;;;;;16.14;100.00;99594.09;7397803;19;20026;-76
2023/07/06 05:45:32;;;;;;;6.18;0.55;;;;;;;16.38;100.00;99591.38;7397495;19;20042;-76
2023/07/06 05:47:59;;;;;;;0.45;0.35;;;;;;;16.52;100.00;99587.47;7396453;19;20022;-76
2023/07/06 05:50:25;;;;;;;2.45;0.50;;;;;;;16.36;100.00;99599.56;7397168;19;20014;-76
2023/07/06 05:52:52;;;;;;;0.57;0.40;;;;;;;16.94;100.00;99596.56;7398241;19;20013;-76
2023/07/06 05:55:18;;;;;;;0.55;0.30;;;;;;;16.66;100.00;99600.41;7397890;19;20022;-76
2023/07/06 05:57:46;;;;;;;0.30;0.30;;;;;;;16.81;100.00;99593.63;7399291;19;20043;-76
2023/07/06 06:00:15;;;;;;;4.00;0.30;;;;;;;16.52;100.00;99595.16;7397816;19;20015;-76
2023/07/06 06:02:44;;;;;;;7.57;0.68;;;;;;;16.70;100.00;99594.47;7397207;19;20358;-76
2023/07/06 06:05:14;;;;;;;0.47;0.28;;;;;;;16.77;100.00;99595.97;7398042;19;20018;-76
2023/07/06 06:07:43;;;;;;;0.70;0.15;;;;;;;16.83;100.00;99596.69;7397535;19;20039;-76
2023/07/06 06:10:13;;;;;;;1.30;0.10;;;;;;;17.00;100.00;99600.84;7397750;19;20019;-76
2023/07/06 06:12:39;;;;;;;3.10;0.68;;;;;;;17.11;100.00;99608.41;7397060;19;20022;-76
2023/07/06 06:15:07;;;;;;;1.80;0.15;;;;;;;16.94;100.00;99596.56;7396124;19;20362;-76
2023/07/06 06:17:34;;;;;;;0.85;0.22;;;;;;;17.67;100.00;99605.81;7396902;19;20014;-76
2023/07/06 06:20:00;;;;;;;3.50;0.47;;;;;;;17.78;100.00;99608.50;7395905;19;20097;-76
2023/07/06 06:22:26;;;;;;;1.13;0.25;;;;;;;17.35;100.00;99602.81;7393523;19;20078;-76
2023/07/06 06:24:53;;;;;;;1.63;0.75;;;;;;;17.39;100.00;99604.03;7392976;19;20470;-76
2023/07/06 06:27:19;;;;;;;0.30;0.20;;;;;;;18.01;100.00;99607.69;7395245;19;20031;-76
2023/07/06 06:29:46;;;;;;;0.15;0.10;;;;;;;17.35;100.00;99609.19;7394260;19;20033;-76
2023/07/06 06:32:13;;;;;;;0.30;0.10;;;;;;;17.24;100.00;99614.19;7392233;19;20018;-76
2023/07/06 06:34:41;;;;;;;1.20;0.35;;;;;;;17.37;100.00;99611.47;7398009;19;20365;-76
2023/07/06 06:37:09;;;;;;;6.65;0.52;;;;;;;17.61;100.00;99617.13;7396273;19;20349;-76
2023/07/06 06:39:35;;;;;;;0.68;0.30;;;;;;;17.85;100.00;99611.47;7396092;19;20024;-76
2023/07/06 06:42:02;;;;;;;0.57;0.32;;;;;;;18.00;100.00;99614.59;7394141;19;20031;-76
2023/07/06 06:44:30;;;;;;;1.65;0.52;;;;;;;18.37;100.00;99615.88;7394199;19;20019;-76
2023/07/06 06:46:58;;;;;;;0.50;0.20;;;;;;;18.10;100.00;99618.53;7398026;19;20533;-77
2023/07/06 06:49:25;;;;;;;3.10;1.10;;;;;;;18.17;100.00;99620.00;7396642;19;20043;-76
2023/07/06 06:51:51;;;;;;;0.25;0.17;;;;;;;18.63;100.00;99625.25;7394401;19;20007;-76
2023/07/06 06:54:17;;;;;;;0.20;0.10;;;;;;;19.16;100.00;99623.34;7395660;19;20036;-76
2023/07/06 06:56:43;;;;;;;3.17;0.55;;;;;;;19.25;100.00;99622.88;7397363;19;20018;-76
2023/07/06 06:59:11;;;;;;;2.13;0.73;;;;;;;19.40;100.00;99620.34;7394897;19;20472;-76
2023/07/06 07:01:38;;;;;;;9.68;0.52;;;;;;;19.30;100.00;99621.25;7394052;19;20014;-76
2023/07/06 07:04:04;;;;;;;1.88;0.20;;;;;;;19.34;100.00;99622.50;7392517;19;20744;-76
2023/07/06 07:06:30;;;;;;;0.20;0.20;;;;;;;18.53;100.00;99629.75;7393494;19;20026;-76
2023/07/06 07:08:57;;;;;;;0.43;0.20;;;;;;;17.42;100.00;99630.38;7394929;19;20010;-76
2023/07/06 07:11:24;;;;;;;0.28;0.25;;;;;;;20.14;100.00;99635.28;7394450;19;20014;-76
2023/07/06 07:13:53;;;;;;;0.40;0.30;;;;;;;18.69;100.00;99630.81;7394528;19;20522;-76
2023/07/06 07:16:20;;;;;;;0.50;0.20;;;;;;;18.44;100.00;99632.19;7394239;19;20006;-76
2023/07/06 07:18:46;;;;;;;11.27;0.45;;;;;;;18.40;100.00;99631.72;7393633;19;20015;-76
2023/07/06 07:21:14;;;;;;;1.15;0.20;;;;;;;18.45;100.00;99628.09;7396144;19;20512;-76
2023/07/06 07:23:46;;;;;;;1.00;0.60;;;;;;;18.47;100.00;99633.97;7393661;19;20033;-76
2023/07/06 07:26:18;;;;;;;0.57;0.20;;;;;;;18.72;100.00;99630.50;7393469;19;20477;-76
2023/07/06 07:28:48;;;;;;;0.63;0.28;;;;;;;18.56;100.00;99633.56;7395305;19;20014;-76
2023/07/06 07:31:17;;;;;;;0.60;0.17;;;;;;;18.44;100.00;99632.19;7392885;19;20348;-76
2023/07/06 07:33:46;;;;;;;0.20;0.20;;;;;;;18.61;100.00;99629.88;7395107;19;20015;-76
2023/07/06 07:36:16;;;;;;;4.80;1.45;;;;;;;18.43;100.00;99636.31;7394576;19;20015;-76
2023/07/06 07:38:44;;;;;;;1.85;0.73;;;;;;;18.25;100.00;99637.84;7393018;19;20368;-76
2023/07/06 07:41:11;;;;;;;2.45;0.45;;;;;;;18.39;100.00;99628.13;7392836;19;20019;-76
2023/07/06 07:43:41;;;;;;;3.13;0.50;;;;;;;18.96;100.00;99632.41;7393407;19;20051;-77
2023/07/06 07:46:10;;;;;;;0.28;0.10;;;;;;;19.46;100.00;99640.78;7394767;19;20017;-76
2023/07/06 07:48:40;;;;;;;0.60;0.20;;;;;;;19.63;100.00;99644.03;7392484;19;20023;-76
2023/07/06 07:51:09;;;;;;;0.10;0.10;;;;;;;19.28;100.00;99641.59;7390505;19;20018;-76
2023/07/06 07:53:38;;;;;;;0.90;0.40;;;;;;;19.19;100.00;99639.19;7394192;19;20014;-77
2023/07/06 07:56:05;;;;;;;0.50;0.20;;;;;;;19.73;100.00;99635.88;7394284;19;20018;-76
2023/07/06 07:58:35;;;;;;;1.40;0.20;;;;;;;19.99;100.00;99633.00;7394045;19;20585;-76
2023/07/06 08:01:09;;;;;;;1.20;0.63;;;;;;;20.99;100.00;99631.50;7392895;19;20358;-76
2023/07/06 08:03:36;;;;;;;0.30;0.10;;;;;;;19.97;100.00;99641.28;7394566;19;20023;-76
2023/07/06 08:06:08;;;;;;;0.82;0.43;;;;;;;19.87;100.00;99637.41;7392027;19;20014;-76
2023/07/06 08:08:36;;;;;;;1.13;0.20;;;;;;;19.37;100.00;99637.59;7394641;19;20491;-77
2023/07/06 08:11:07;;;;;;;10.35;0.47;;;;;;;19.20;100.00;99645.59;7390477;19;20035;-76
2023/07/06 08:13:34;;;;;;;0.30;0.10;;;;;;;19.43;100.00;99636.19;7391195;19;20336;-76
2023/07/06 08:16:00;;;;;;;0.22;0.20;;;;;;;19.08;100.00;99644.28;7393506;19;20019;-76
2023/07/06 08:18:28;;;;;;;0.20;0.10;;;;;;;19.31;100.00;99634.88;7393038;19;20018;-76
2023/07/06 08:20:55;;;;;;;0.40;0.10;;;;;;;19.18;100.00;99651.00;7395452;19;20031;-76
2023/07/06 08:23:22;;;;;;;1.75;0.20;;;;;;;19.96;100.00;99653.16;7390042;19;20355;-76
2023/07/06 08:25:52;;;;;;;1.50;0.30;;;;;;;20.66;100.00;99645.72;7392250;19;20019;-76
2023/07/06 08:28:25;;;;;;;0.53;0.23;;;;;;;20.36;100.00;99652.53;7392103;19;20343;-76
2023/07/06 08:30:52;;;;;;;0.20;0.20;;;;;;;20.53;100.00;99649.31;7392990;19;20014;-76
2023/07/06 08:33:20;;;;;;;0.25;0.10;;;;;;;21.04;100.00;99633.47;7392583;19;20103;-76
2023/07/06 08:35:47;;;;;;;0.65;0.40;;;;;;;21.06;100.00;99644.22;7392061;19;20351;-76
2023/07/06 08:38:14;;;;;;;0.77;0.13;;;;;;;21.34;100.00;99640.66;7390669;19;20014;-76
2023/07/06 08:40:42;;;;;;;9.75;0.55;;;;;;;21.19;100.00;99629.97;7391725;19;20039;-76
2023/07/06 08:43:26;;;;;;;0.30;0.30;;;;;;;21.95;100.00;99624.81;7391288;19;20022;-76
2023/07/06 08:45:58;;;;;;;0.68;0.28;;;;;;;21.23;100.00;99624.72;7391162;19;20014;-76
2023/07/06 08:48:27;;;;;;;1.83;0.20;;;;;;;21.75;100.00;99612.22;7392096;19;20042;-76
2023/07/06 08:50:58;;;;;;;1.55;0.20;;;;;;;21.41;100.00;99618.06;7389610;19;20010;-76
2023/07/06 08:53:27;;;;;;;;;;;;;;;21.65;100.00;99622.56;7391963;19;20469;-76
2023/07/06 08:55:56;;;;;;;0.20;0.10;;;;;;;21.94;94.28;99621.22;7394977;19;19923;-76
2023/07/06 08:58:27;;;;;;;0.20;0.20;;;;;;;21.76;91.39;99625.09;7394879;19;20075;-76
2023/07/06 09:01:10;;;;;;;0.52;0.52;;;;;;;22.41;91.28;99624.44;7390842;19;20649;-76
2023/07/06 09:03:56;;;;;;;0.98;0.47;;;;;;;23.35;80.96;99615.66;7390959;19;20015;-76
2023/07/06 09:06:27;;;;;;;0.00;0.00;;;;;;;23.84;79.81;99626.56;7391322;19;20026;-76
2023/07/06 09:09:03;;;;;;;0.10;0.10;;;;;;;23.74;84.07;99628.47;7396258;19;20025;-76
2023/07/06 09:11:31;;;;;;;0.03;0.00;;;;;;;24.20;76.59;99634.81;7391452;19;20007;-76
2023/07/06 09:14:00;;;;;;;0.10;0.10;;;;;;;24.33;76.73;99630.94;7390614;19;20021;-77
2023/07/06 09:16:26;;;;;;;0.55;0.20;;;;;;;24.28;78.30;99634.78;7391831;19;20367;-76
2023/07/06 09:18:53;;;;;;;0.20;0.20;;;;;;;24.50;74.41;99633.88;7391274;19;20023;-77
2023/07/06 09:21:25;;;;;;;5.47;0.20;;;;;;;24.68;71.81;99632.66;7389950;19;20011;-76
2023/07/06 09:23:52;;;;;;;3.30;0.20;;;;;;;24.62;72.34;99634.97;7388227;19;20011;-77
2023/07/06 09:26:34;;;;;;;0.10;0.05;;;;;;;24.65;72.87;99633.81;7390997;19;20372;-76
2023/07/06 09:29:32;;;;;;;1.65;0.30;;;;;;;28.62;59.60;99622.94;7389826;19;20011;-76
2023/07/06 09:32:13;;;;;;;0.32;0.10;;;;;;;32.05;48.50;99623.97;7390621;19;20525;-76
2023/07/06 09:34:45;;;;;;;0.35;0.10;;;;;;;27.66;50.28;99628.69;7389480;19;20023;-76
2023/07/06 09:37:12;;;;;;;0.57;0.00;;;;;;;27.98;59.50;99625.41;7389735;19;20489;-76
2023/07/06 09:39:40;;;;;;;0.10;0.00;;;;;;;33.29;42.59;99617.91;7390399;19;20050;-77
2023/07/06 09:42:12;;;;;;;1.05;0.25;;;;;;;32.24;45.65;99614.97;7387786;19;20014;-76
2023/07/06 09:44:39;;;;;;;1.60;0.20;;;;;;;27.80;50.68;99621.19;7392394;19;20478;-77
2023/07/06 09:47:11;;;;;;;1.65;0.28;;;;;;;25.24;56.88;99626.19;7389165;19;20043;-76
2023/07/06 09:49:49;;;;;;;1.88;0.15;;;;;;;24.52;59.64;99625.53;7389919;19;20017;-76
2023/07/06 09:52:17;;;;;;;1.95;0.50;;;;;;;24.16;64.79;99633.69;7388421;19;20078;-76
2023/07/06 09:54:52;;;;;;;1.27;0.45;;;;;;;24.19;67.90;99629.69;7390656;19;20354;-76
2023/07/06 09:57:18;;;;;;;0.32;0.10;;;;;;;24.78;65.35;99636.41;7390772;19;20014;-76
2023/07/06 09:59:47;;;;;;;1.65;0.10;;;;;;;25.12;65.01;99642.22;7389706;19;20018;-76
2023/07/06 10:02:51;;;;;;;2.42;0.32;;;;;;;24.37;67.37;99637.00;7386845;19;20018;-76
2023/07/06 10:05:31;;;;;;;0.90;0.28;;;;;;;24.77;66.50;99640.59;7393995;19;20014;-76
2023/07/06 10:08:11;;;;;;;2.13;0.15;;;;;;;24.25;70.83;99639.53;7389849;19;20378;-76
2023/07/06 10:10:49;;;;;;;0.28;0.10;;;;;;;23.89;69.55;99645.50;7390008;19;20025;-76
2023/07/06 10:13:29;;;;;;;2.75;0.10;;;;;;;24.37;68.64;99642.69;7388825;19;20022;-76
2023/07/06 10:16:17;;;;;;;0.10;0.10;;;;;;;24.19;67.91;99638.22;7394623;19;20010;-76
2023/07/06 10:18:51;;;;;;;0.63;0.52;;;;;;;23.82;71.61;99637.00;7395583;19;20025;-76
2023/07/06 10:21:21;;;;;;;0.35;0.28;;;;;;;24.02;72.83;99639.59;7396624;19;20029;-76
2023/07/06 10:24:04;;;;;;;2.08;0.10;;;;;;;23.99;73.00;99646.44;7394312;19;20022;-76
2023/07/06 10:26:34;;;;;;;0.45;0.45;;;;;;;23.86;72.35;99655.19;7394434;19;20772;-76
2023/07/06 10:29:09;;;;;;;0.70;0.28;;;;;;;23.74;71.23;99645.53;7396906;19;20026;-76
2023/07/06 10:31:43;;;;;;;2.50;0.50;;;;;;;23.42;74.45;99642.56;7395745;19;20055;-76
2023/07/06 10:34:17;;;;;;;2.75;0.38;;;;;;;23.92;73.84;99641.53;7398028;19;20017;-76
2023/07/06 10:36:44;;;;;;;0.70;0.50;;;;;;;23.72;73.14;99648.22;7396872;19;20082;-76
2023/07/06 10:39:13;;;;;;;0.00;0.00;;;;;;;23.85;75.72;99653.69;7396874;19;20362;-77
2023/07/06 10:41:49;;;;;;;1.85;0.40;;;;;;;23.76;74.87;99642.88;7395356;19;20481;-76
2023/07/06 10:44:44;;;;;;;0.20;0.10;;;;;;;24.10;74.40;99646.03;7393982;19;20039;-76
2023/07/06 10:47:28;;;;;;;1.58;0.20;;;;;;;24.38;75.25;99644.97;7394053;19;20029;-76
2023/07/06 10:50:07;;;;;;;0.10;0.10;;;;;;;24.87;76.96;99644.31;7394214;19;20411;-76
2023/07/06 10:52:38;;;;;;;1.73;0.25;;;;;;;26.09;69.50;99641.91;7392552;19;20018;-76
2023/07/06 10:55:24;;;;;;;1.40;0.40;;;;;;;24.71;71.02;99645.75;7397653;19;20015;-76
2023/07/06 10:57:52;;;;;;;3.53;0.60;;;;;;;25.14;69.53;99644.50;7399772;19;20019;-76
2023/07/06 11:00:21;;;;;;;0.10;0.00;;;;;;;24.95;70.49;99650.72;7395641;19;20018;-76
2023/07/06 11:02:47;;;;;;;0.45;0.10;;;;;;;29.60;54.52;99649.25;7394481;19;20011;-76
2023/07/06 11:05:33;;;;;;;0.40;0.10;;;;;;;28.02;58.91;99653.59;7399135;19;20014;-76
2023/07/06 11:08:05;;;;;;;0.85;0.32;;;;;;;32.69;52.53;99647.84;7393374;19;20514;-76
2023/07/06 11:10:44;;;;;;;0.17;0.10;;;;;;;29.82;52.10;99645.78;7395106;19;20045;-76
2023/07/06 11:13:12;;;;;;;5.57;0.20;;;;;;;29.65;55.56;99651.03;7395733;19;20371;-76
2023/07/06 11:16:03;;;;;;;1.95;0.52;;;;;;;32.19;45.34;99642.06;7398371;19;20019;-76
2023/07/06 11:18:34;;;;;;;0.32;0.10;;;;;;;27.94;50.58;99655.84;7395354;19;20353;-76
2023/07/06 11:21:26;;;;;;;7.63;0.38;;;;;;;31.27;46.32;99643.69;7394305;19;20363;-76
2023/07/06 11:24:02;;;;;;;0.43;0.30;;;;;;;24.35;67.59;99657.50;7394765;19;20424;-76
2023/07/06 11:26:38;;;;;;;0.73;0.20;;;;;;;23.34;75.60;99653.97;7390774;19;20038;-76
2023/07/06 11:29:08;;;;;;;0.20;0.10;;;;;;;23.54;74.25;99654.31;7394277;19;20496;-77
2023/07/06 11:32:41;;;;;;;0.30;0.20;;;;;;;24.26;75.56;99657.34;7393898;19;20031;-76
2023/07/06 11:35:16;;;;;;;1.05;0.30;;;;;;;23.63;78.87;99654.47;7393081;19;20474;-76
2023/07/06 11:38:05;;;;;;;0.88;0.30;;;;;;;23.59;80.07;99659.78;7390373;19;20029;-76
2023/07/06 11:41:00;;;;;;;0.75;0.10;;;;;;;24.36;76.26;99647.66;7391031;19;20015;-76
2023/07/06 11:43:37;;;;;;;0.65;0.17;;;;;;;24.36;74.17;99646.88;7393847;19;20018;-76
2023/07/06 11:46:23;;;;;;;1.90;0.63;;;;;;;26.06;68.59;99660.16;7394694;19;20023;-76